sensor_id;sensor_type;location;lat;lon;timestamp;P1;durP1;ratioP1;P2;durP2;ratioP2
59599;SDS011;61855;55.030;73.326;2022-08-25T00:01:01;50.63;;;27.75;;
59599;SDS011;61855;55.030;73.326;2022-08-25T00:03:33;50.03;;;26.80;;
59599;SDS011;61855;55.030;73.326;2022-08-25T00:05:58;52.42;;;28.23;;
59599;SDS011;61855;55.030;73.326;2022-08-25T00:08:29;51.83;;;28.33;;
59599;SDS011;61855;55.030;73.326;2022-08-25T00:10:55;48.92;;;27.55;;
59599;SDS011;61855;55.030;73.326;2022-08-25T00:13:21;55.88;;;28.08;;
59599;SDS011;61855;55.030;73.326;2022-08-25T00:15:48;61.65;;;29.35;;
59599;SDS011;61855;55.030;73.326;2022-08-25T00:18:14;51.95;;;28.48;;
59599;SDS011;61855;55.030;73.326;2022-08-25T00:20:41;59.17;;;28.77;;
59599;SDS011;61855;55.030;73.326;2022-08-25T00:23:07;63.08;;;29.00;;
59599;SDS011;61855;55.030;73.326;2022-08-25T00:25:33;58.28;;;29.40;;
59599;SDS011;61855;55.030;73.326;2022-08-25T00:28:00;54.58;;;27.83;;
59599;SDS011;61855;55.030;73.326;2022-08-25T00:30:37;56.88;;;26.88;;
59599;SDS011;61855;55.030;73.326;2022-08-25T00:33:03;46.22;;;25.70;;
59599;SDS011;61855;55.030;73.326;2022-08-25T00:35:35;53.35;;;28.17;;
59599;SDS011;61855;55.030;73.326;2022-08-25T00:38:07;53.75;;;28.58;;
59599;SDS011;61855;55.030;73.326;2022-08-25T00:40:45;55.60;;;28.77;;
59599;SDS011;61855;55.030;73.326;2022-08-25T00:46:06;59.42;;;31.48;;
59599;SDS011;61855;55.030;73.326;2022-08-25T00:48:44;56.47;;;34.22;;
59599;SDS011;61855;55.030;73.326;2022-08-25T00:51:16;56.58;;;29.48;;
59599;SDS011;61855;55.030;73.326;2022-08-25T00:53:48;59.10;;;27.17;;
59599;SDS011;61855;55.030;73.326;2022-08-25T00:56:25;52.00;;;28.40;;
59599;SDS011;61855;55.030;73.326;2022-08-25T00:58:57;55.92;;;28.33;;
59599;SDS011;61855;55.030;73.326;2022-08-25T01:01:27;57.00;;;28.90;;
59599;SDS011;61855;55.030;73.326;2022-08-25T01:04:07;57.60;;;28.23;;
59599;SDS011;61855;55.030;73.326;2022-08-25T01:06:34;59.53;;;29.15;;
59599;SDS011;61855;55.030;73.326;2022-08-25T01:09:10;63.00;;;30.33;;
59599;SDS011;61855;55.030;73.326;2022-08-25T01:11:41;54.95;;;27.63;;
59599;SDS011;61855;55.030;73.326;2022-08-25T01:14:09;57.50;;;27.05;;
59599;SDS011;61855;55.030;73.326;2022-08-25T01:16:39;53.70;;;27.13;;
59599;SDS011;61855;55.030;73.326;2022-08-25T01:19:06;59.95;;;28.92;;
59599;SDS011;61855;55.030;73.326;2022-08-25T01:21:40;55.78;;;27.55;;
59599;SDS011;61855;55.030;73.326;2022-08-25T01:24:15;47.72;;;24.50;;
59599;SDS011;61855;55.030;73.326;2022-08-25T01:26:48;54.40;;;26.30;;
59599;SDS011;61855;55.030;73.326;2022-08-25T01:29:14;47.53;;;26.65;;
59599;SDS011;61855;55.030;73.326;2022-08-25T01:31:47;48.58;;;22.67;;
59599;SDS011;61855;55.030;73.326;2022-08-25T01:34:15;52.20;;;24.15;;
59599;SDS011;61855;55.030;73.326;2022-08-25T01:36:42;49.83;;;26.42;;
59599;SDS011;61855;55.030;73.326;2022-08-25T01:39:09;46.72;;;24.75;;
59599;SDS011;61855;55.030;73.326;2022-08-25T01:44:23;46.28;;;23.80;;
59599;SDS011;61855;55.030;73.326;2022-08-25T01:46:55;40.63;;;19.85;;
59599;SDS011;61855;55.030;73.326;2022-08-25T01:49:25;42.70;;;21.35;;
59599;SDS011;61855;55.030;73.326;2022-08-25T01:51:55;46.08;;;21.88;;
59599;SDS011;61855;55.030;73.326;2022-08-25T01:54:35;46.90;;;21.98;;
59599;SDS011;61855;55.030;73.326;2022-08-25T01:57:03;40.53;;;21.70;;
59599;SDS011;61855;55.030;73.326;2022-08-25T01:59:29;41.88;;;21.52;;
59599;SDS011;61855;55.030;73.326;2022-08-25T02:01:55;45.45;;;19.52;;
59599;SDS011;61855;55.030;73.326;2022-08-25T02:04:21;41.30;;;19.40;;
59599;SDS011;61855;55.030;73.326;2022-08-25T02:06:47;36.08;;;17.45;;
59599;SDS011;61855;55.030;73.326;2022-08-25T02:09:21;38.10;;;17.30;;
59599;SDS011;61855;55.030;73.326;2022-08-25T02:11:49;39.75;;;18.33;;
59599;SDS011;61855;55.030;73.326;2022-08-25T02:14:15;45.72;;;18.80;;
59599;SDS011;61855;55.030;73.326;2022-08-25T02:16:44;38.20;;;18.83;;
59599;SDS011;61855;55.030;73.326;2022-08-25T02:19:23;40.97;;;19.52;;
59599;SDS011;61855;55.030;73.326;2022-08-25T02:21:50;37.63;;;17.63;;
59599;SDS011;61855;55.030;73.326;2022-08-25T02:24:17;39.80;;;16.80;;
59599;SDS011;61855;55.030;73.326;2022-08-25T02:26:43;37.00;;;16.65;;
59599;SDS011;61855;55.030;73.326;2022-08-25T02:29:09;39.00;;;18.10;;
59599;SDS011;61855;55.030;73.326;2022-08-25T02:31:40;35.33;;;15.93;;
59599;SDS011;61855;55.030;73.326;2022-08-25T02:34:06;40.35;;;17.20;;
59599;SDS011;61855;55.030;73.326;2022-08-25T02:36:33;40.60;;;16.70;;
59599;SDS011;61855;55.030;73.326;2022-08-25T02:38:59;42.92;;;16.58;;
59599;SDS011;61855;55.030;73.326;2022-08-25T02:41:26;39.72;;;15.20;;
59599;SDS011;61855;55.030;73.326;2022-08-25T02:44:03;38.17;;;14.90;;
59599;SDS011;61855;55.030;73.326;2022-08-25T02:46:30;46.15;;;17.70;;
59599;SDS011;61855;55.030;73.326;2022-08-25T02:48:57;41.33;;;17.25;;
59599;SDS011;61855;55.030;73.326;2022-08-25T02:51:23;40.75;;;14.38;;
59599;SDS011;61855;55.030;73.326;2022-08-25T02:53:56;37.63;;;14.07;;
59599;SDS011;61855;55.030;73.326;2022-08-25T02:56:24;41.22;;;14.45;;
59599;SDS011;61855;55.030;73.326;2022-08-25T02:58:50;31.30;;;13.23;;
59599;SDS011;61855;55.030;73.326;2022-08-25T03:01:16;28.05;;;13.07;;
59599;SDS011;61855;55.030;73.326;2022-08-25T03:03:43;34.55;;;12.88;;
59599;SDS011;61855;55.030;73.326;2022-08-25T03:06:12;31.67;;;12.98;;
59599;SDS011;61855;55.030;73.326;2022-08-25T03:08:40;35.28;;;12.65;;
59599;SDS011;61855;55.030;73.326;2022-08-25T03:11:07;33.85;;;13.55;;
59599;SDS011;61855;55.030;73.326;2022-08-25T03:13:34;29.50;;;13.05;;
59599;SDS011;61855;55.030;73.326;2022-08-25T03:16:05;29.27;;;12.35;;
59599;SDS011;61855;55.030;73.326;2022-08-25T03:18:36;30.83;;;11.00;;
59599;SDS011;61855;55.030;73.326;2022-08-25T03:21:02;39.50;;;12.10;;
59599;SDS011;61855;55.030;73.326;2022-08-25T03:23:29;26.35;;;11.35;;
59599;SDS011;61855;55.030;73.326;2022-08-25T03:25:55;25.77;;;10.93;;
59599;SDS011;61855;55.030;73.326;2022-08-25T03:28:40;32.38;;;12.15;;
59599;SDS011;61855;55.030;73.326;2022-08-25T03:31:06;36.42;;;12.85;;
59599;SDS011;61855;55.030;73.326;2022-08-25T03:33:38;33.22;;;11.85;;
59599;SDS011;61855;55.030;73.326;2022-08-25T03:36:05;25.70;;;10.50;;
59599;SDS011;61855;55.030;73.326;2022-08-25T03:38:31;26.42;;;10.25;;
59599;SDS011;61855;55.030;73.326;2022-08-25T03:40:57;30.35;;;9.60;;
59599;SDS011;61855;55.030;73.326;2022-08-25T03:43:23;33.17;;;10.85;;
59599;SDS011;61855;55.030;73.326;2022-08-25T03:45:50;23.83;;;11.27;;
59599;SDS011;61855;55.030;73.326;2022-08-25T03:48:16;25.02;;;10.13;;
59599;SDS011;61855;55.030;73.326;2022-08-25T03:50:43;19.48;;;8.32;;
59599;SDS011;61855;55.030;73.326;2022-08-25T03:53:14;22.42;;;8.35;;
59599;SDS011;61855;55.030;73.326;2022-08-25T03:55:41;23.83;;;8.45;;
59599;SDS011;61855;55.030;73.326;2022-08-25T03:58:10;24.13;;;7.72;;
59599;SDS011;61855;55.030;73.326;2022-08-25T04:00:37;25.15;;;6.82;;
59599;SDS011;61855;55.030;73.326;2022-08-25T04:03:07;20.90;;;7.20;;
59599;SDS011;61855;55.030;73.326;2022-08-25T04:05:34;22.88;;;7.07;;
59599;SDS011;61855;55.030;73.326;2022-08-25T04:08:00;38.47;;;6.65;;
59599;SDS011;61855;55.030;73.326;2022-08-25T04:10:36;26.30;;;7.28;;
59599;SDS011;61855;55.030;73.326;2022-08-25T04:13:12;22.27;;;5.43;;
59599;SDS011;61855;55.030;73.326;2022-08-25T04:15:40;20.38;;;6.15;;
59599;SDS011;61855;55.030;73.326;2022-08-25T04:18:08;17.20;;;6.20;;
59599;SDS011;61855;55.030;73.326;2022-08-25T04:20:36;29.92;;;6.63;;
59599;SDS011;61855;55.030;73.326;2022-08-25T04:23:02;19.73;;;6.80;;
59599;SDS011;61855;55.030;73.326;2022-08-25T04:25:29;24.88;;;7.32;;
59599;SDS011;61855;55.030;73.326;2022-08-25T04:27:55;16.67;;;5.70;;
59599;SDS011;61855;55.030;73.326;2022-08-25T04:30:22;17.60;;;5.72;;
59599;SDS011;61855;55.030;73.326;2022-08-25T04:32:48;17.83;;;5.70;;
59599;SDS011;61855;55.030;73.326;2022-08-25T04:35:14;14.32;;;5.55;;
59599;SDS011;61855;55.030;73.326;2022-08-25T04:37:40;21.85;;;4.95;;
59599;SDS011;61855;55.030;73.326;2022-08-25T04:40:07;15.93;;;4.57;;
59599;SDS011;61855;55.030;73.326;2022-08-25T04:42:34;27.83;;;6.00;;
59599;SDS011;61855;55.030;73.326;2022-08-25T04:45:01;19.70;;;6.03;;
59599;SDS011;61855;55.030;73.326;2022-08-25T04:47:28;19.58;;;5.18;;
59599;SDS011;61855;55.030;73.326;2022-08-25T04:49:56;12.50;;;3.85;;
59599;SDS011;61855;55.030;73.326;2022-08-25T04:52:22;15.05;;;3.80;;
59599;SDS011;61855;55.030;73.326;2022-08-25T04:54:48;11.38;;;4.38;;
59599;SDS011;61855;55.030;73.326;2022-08-25T04:57:24;15.63;;;4.63;;
59599;SDS011;61855;55.030;73.326;2022-08-25T04:59:51;16.92;;;4.63;;
59599;SDS011;61855;55.030;73.326;2022-08-25T05:02:17;15.60;;;4.25;;
59599;SDS011;61855;55.030;73.326;2022-08-25T05:04:43;14.82;;;4.25;;
59599;SDS011;61855;55.030;73.326;2022-08-25T05:07:10;22.02;;;4.18;;
59599;SDS011;61855;55.030;73.326;2022-08-25T05:09:45;21.00;;;4.25;;
59599;SDS011;61855;55.030;73.326;2022-08-25T05:12:11;20.23;;;3.70;;
59599;SDS011;61855;55.030;73.326;2022-08-25T05:14:38;13.27;;;4.05;;
59599;SDS011;61855;55.030;73.326;2022-08-25T05:17:04;16.88;;;4.47;;
59599;SDS011;61855;55.030;73.326;2022-08-25T05:19:31;12.48;;;3.67;;
59599;SDS011;61855;55.030;73.326;2022-08-25T05:21:57;15.20;;;3.65;;
59599;SDS011;61855;55.030;73.326;2022-08-25T05:24:23;11.55;;;3.65;;
59599;SDS011;61855;55.030;73.326;2022-08-25T05:26:54;11.70;;;3.47;;
59599;SDS011;61855;55.030;73.326;2022-08-25T05:29:23;14.85;;;3.08;;
59599;SDS011;61855;55.030;73.326;2022-08-25T05:31:49;11.23;;;2.92;;
59599;SDS011;61855;55.030;73.326;2022-08-25T05:34:26;14.10;;;3.25;;
59599;SDS011;61855;55.030;73.326;2022-08-25T05:36:52;9.82;;;3.05;;
59599;SDS011;61855;55.030;73.326;2022-08-25T05:39:18;11.93;;;3.17;;
59599;SDS011;61855;55.030;73.326;2022-08-25T05:41:44;15.35;;;3.80;;
59599;SDS011;61855;55.030;73.326;2022-08-25T05:44:10;23.67;;;3.78;;
59599;SDS011;61855;55.030;73.326;2022-08-25T05:46:37;12.32;;;3.70;;
59599;SDS011;61855;55.030;73.326;2022-08-25T05:49:03;15.07;;;3.00;;
59599;SDS011;61855;55.030;73.326;2022-08-25T05:51:29;8.90;;;2.47;;
59599;SDS011;61855;55.030;73.326;2022-08-25T05:53:59;9.10;;;2.65;;
59599;SDS011;61855;55.030;73.326;2022-08-25T05:56:25;14.10;;;2.70;;
59599;SDS011;61855;55.030;73.326;2022-08-25T05:59:09;6.57;;;2.70;;
59599;SDS011;61855;55.030;73.326;2022-08-25T06:01:35;6.97;;;1.70;;
59599;SDS011;61855;55.030;73.326;2022-08-25T06:04:31;8.30;;;2.00;;
59599;SDS011;61855;55.030;73.326;2022-08-25T06:06:57;8.10;;;2.65;;
59599;SDS011;61855;55.030;73.326;2022-08-25T06:09:28;14.88;;;2.30;;
59599;SDS011;61855;55.030;73.326;2022-08-25T06:11:54;11.52;;;1.80;;
59599;SDS011;61855;55.030;73.326;2022-08-25T06:14:20;7.97;;;1.70;;
59599;SDS011;61855;55.030;73.326;2022-08-25T06:16:50;11.73;;;1.90;;
59599;SDS011;61855;55.030;73.326;2022-08-25T06:19:16;6.28;;;2.00;;
59599;SDS011;61855;55.030;73.326;2022-08-25T06:21:44;5.88;;;2.08;;
59599;SDS011;61855;55.030;73.326;2022-08-25T06:24:10;5.80;;;1.92;;
59599;SDS011;61855;55.030;73.326;2022-08-25T06:26:36;3.35;;;2.17;;
59599;SDS011;61855;55.030;73.326;2022-08-25T06:29:02;4.55;;;1.80;;
59599;SDS011;61855;55.030;73.326;2022-08-25T06:31:29;11.00;;;1.98;;
59599;SDS011;61855;55.030;73.326;2022-08-25T06:33:55;9.25;;;2.33;;
59599;SDS011;61855;55.030;73.326;2022-08-25T06:36:22;5.38;;;2.45;;
59599;SDS011;61855;55.030;73.326;2022-08-25T06:38:49;9.93;;;2.83;;
59599;SDS011;61855;55.030;73.326;2022-08-25T06:41:16;4.22;;;2.90;;
59599;SDS011;61855;55.030;73.326;2022-08-25T06:43:42;7.88;;;2.70;;
59599;SDS011;61855;55.030;73.326;2022-08-25T06:46:09;9.38;;;2.65;;
59599;SDS011;61855;55.030;73.326;2022-08-25T06:48:51;8.45;;;2.50;;
59599;SDS011;61855;55.030;73.326;2022-08-25T06:51:19;5.03;;;2.88;;
59599;SDS011;61855;55.030;73.326;2022-08-25T06:53:47;6.15;;;2.67;;
59599;SDS011;61855;55.030;73.326;2022-08-25T06:56:24;10.95;;;3.05;;
59599;SDS011;61855;55.030;73.326;2022-08-25T06:58:55;10.68;;;3.45;;
59599;SDS011;61855;55.030;73.326;2022-08-25T07:01:24;14.23;;;3.45;;
59599;SDS011;61855;55.030;73.326;2022-08-25T07:03:55;9.85;;;3.00;;
59599;SDS011;61855;55.030;73.326;2022-08-25T07:06:24;7.05;;;2.80;;
59599;SDS011;61855;55.030;73.326;2022-08-25T07:08:58;8.43;;;2.83;;
59599;SDS011;61855;55.030;73.326;2022-08-25T07:11:25;9.05;;;3.20;;
59599;SDS011;61855;55.030;73.326;2022-08-25T07:13:51;5.07;;;2.50;;
59599;SDS011;61855;55.030;73.326;2022-08-25T07:16:17;5.03;;;2.88;;
59599;SDS011;61855;55.030;73.326;2022-08-25T07:18:50;11.75;;;3.17;;
59599;SDS011;61855;55.030;73.326;2022-08-25T07:21:16;9.90;;;3.05;;
59599;SDS011;61855;55.030;73.326;2022-08-25T07:23:47;5.05;;;2.92;;
59599;SDS011;61855;55.030;73.326;2022-08-25T07:26:18;6.85;;;3.20;;
59599;SDS011;61855;55.030;73.326;2022-08-25T07:28:49;10.95;;;3.30;;
59599;SDS011;61855;55.030;73.326;2022-08-25T07:31:26;9.27;;;3.00;;
59599;SDS011;61855;55.030;73.326;2022-08-25T07:33:53;13.32;;;3.28;;
59599;SDS011;61855;55.030;73.326;2022-08-25T07:36:37;10.77;;;2.88;;
59599;SDS011;61855;55.030;73.326;2022-08-25T07:39:03;12.63;;;3.50;;
59599;SDS011;61855;55.030;73.326;2022-08-25T07:41:36;20.10;;;3.72;;
59599;SDS011;61855;55.030;73.326;2022-08-25T07:44:04;14.13;;;4.20;;
59599;SDS011;61855;55.030;73.326;2022-08-25T07:46:31;12.57;;;3.45;;
59599;SDS011;61855;55.030;73.326;2022-08-25T07:48:58;12.57;;;3.60;;
59599;SDS011;61855;55.030;73.326;2022-08-25T07:51:29;8.13;;;3.58;;
59599;SDS011;61855;55.030;73.326;2022-08-25T07:54:00;7.55;;;3.03;;
59599;SDS011;61855;55.030;73.326;2022-08-25T07:56:36;15.52;;;3.88;;
59599;SDS011;61855;55.030;73.326;2022-08-25T07:59:02;10.00;;;3.58;;
59599;SDS011;61855;55.030;73.326;2022-08-25T08:01:28;16.30;;;4.47;;
59599;SDS011;61855;55.030;73.326;2022-08-25T08:04:05;19.48;;;4.68;;
59599;SDS011;61855;55.030;73.326;2022-08-25T08:06:31;17.90;;;4.65;;
59599;SDS011;61855;55.030;73.326;2022-08-25T08:09:10;23.55;;;4.50;;
59599;SDS011;61855;55.030;73.326;2022-08-25T08:11:37;19.60;;;5.03;;
59599;SDS011;61855;55.030;73.326;2022-08-25T08:14:05;22.23;;;5.10;;
59599;SDS011;61855;55.030;73.326;2022-08-25T08:16:37;17.02;;;4.65;;
59599;SDS011;61855;55.030;73.326;2022-08-25T08:19:04;25.08;;;4.97;;
59599;SDS011;61855;55.030;73.326;2022-08-25T08:21:41;17.23;;;4.82;;
59599;SDS011;61855;55.030;73.326;2022-08-25T08:24:15;15.05;;;4.65;;
59599;SDS011;61855;55.030;73.326;2022-08-25T08:26:40;13.90;;;4.97;;
59599;SDS011;61855;55.030;73.326;2022-08-25T08:29:06;21.67;;;5.57;;
59599;SDS011;61855;55.030;73.326;2022-08-25T08:31:33;20.92;;;5.30;;
59599;SDS011;61855;55.030;73.326;2022-08-25T08:34:05;29.42;;;6.63;;
59599;SDS011;61855;55.030;73.326;2022-08-25T08:36:37;21.27;;;6.57;;
59599;SDS011;61855;55.030;73.326;2022-08-25T08:39:03;17.55;;;5.28;;
59599;SDS011;61855;55.030;73.326;2022-08-25T08:47:04;22.17;;;6.10;;
59599;SDS011;61855;55.030;73.326;2022-08-25T08:52:18;10.18;;;4.60;;
59599;SDS011;61855;55.030;73.326;2022-08-25T08:54:49;10.50;;;4.40;;
59599;SDS011;61855;55.030;73.326;2022-08-25T08:57:21;12.02;;;4.32;;
59599;SDS011;61855;55.030;73.326;2022-08-25T08:59:56;10.95;;;5.00;;
59599;SDS011;61855;55.030;73.326;2022-08-25T09:02:26;21.10;;;5.65;;
59599;SDS011;61855;55.030;73.326;2022-08-25T09:04:59;10.00;;;4.68;;
59599;SDS011;61855;55.030;73.326;2022-08-25T09:07:30;10.43;;;4.60;;
59599;SDS011;61855;55.030;73.326;2022-08-25T09:10:02;10.13;;;4.20;;
59599;SDS011;61855;55.030;73.326;2022-08-25T09:12:35;14.70;;;4.93;;
59599;SDS011;61855;55.030;73.326;2022-08-25T09:18:00;12.73;;;5.47;;
59599;SDS011;61855;55.030;73.326;2022-08-25T09:25:59;16.70;;;5.50;;
59599;SDS011;61855;55.030;73.326;2022-08-25T09:28:42;13.23;;;5.47;;
59599;SDS011;61855;55.030;73.326;2022-08-25T09:33:49;12.10;;;4.53;;
59599;SDS011;61855;55.030;73.326;2022-08-25T09:36:20;19.98;;;5.97;;
59599;SDS011;61855;55.030;73.326;2022-08-25T09:38:46;17.88;;;5.53;;
59599;SDS011;61855;55.030;73.326;2022-08-25T09:41:13;23.83;;;5.53;;
59599;SDS011;61855;55.030;73.326;2022-08-25T09:43:42;17.55;;;6.07;;
59599;SDS011;61855;55.030;73.326;2022-08-25T09:46:22;8.13;;;4.60;;
59599;SDS011;61855;55.030;73.326;2022-08-25T09:48:51;10.38;;;5.03;;
59599;SDS011;61855;55.030;73.326;2022-08-25T09:53:54;16.08;;;5.55;;
59599;SDS011;61855;55.030;73.326;2022-08-25T09:56:54;14.30;;;5.82;;
59599;SDS011;61855;55.030;73.326;2022-08-25T09:59:25;22.15;;;5.97;;
59599;SDS011;61855;55.030;73.326;2022-08-25T10:02:00;17.65;;;6.20;;
59599;SDS011;61855;55.030;73.326;2022-08-25T10:04:45;9.60;;;5.35;;
59599;SDS011;61855;55.030;73.326;2022-08-25T10:09:58;10.55;;;5.03;;
59599;SDS011;61855;55.030;73.326;2022-08-25T10:15:16;17.60;;;6.00;;
59599;SDS011;61855;55.030;73.326;2022-08-25T10:23:39;9.00;;;5.50;;
59599;SDS011;61855;55.030;73.326;2022-08-25T10:26:12;11.95;;;5.30;;
59599;SDS011;61855;55.030;73.326;2022-08-25T10:29:00;19.52;;;5.93;;
59599;SDS011;61855;55.030;73.326;2022-08-25T10:31:43;16.60;;;6.68;;
59599;SDS011;61855;55.030;73.326;2022-08-25T10:40:27;12.98;;;4.43;;
59599;SDS011;61855;55.030;73.326;2022-08-25T10:46:08;11.95;;;6.35;;
59599;SDS011;61855;55.030;73.326;2022-08-25T10:54:31;18.50;;;6.05;;
59599;SDS011;61855;55.030;73.326;2022-08-25T10:57:25;23.42;;;6.38;;
59599;SDS011;61855;55.030;73.326;2022-08-25T11:00:03;13.18;;;5.78;;
59599;SDS011;61855;55.030;73.326;2022-08-25T11:07:53;24.73;;;6.45;;
59599;SDS011;61855;55.030;73.326;2022-08-25T11:10:26;21.15;;;6.68;;
59599;SDS011;61855;55.030;73.326;2022-08-25T11:13:12;24.23;;;6.88;;
59599;SDS011;61855;55.030;73.326;2022-08-25T11:18:20;35.20;;;8.93;;
59599;SDS011;61855;55.030;73.326;2022-08-25T11:26:36;19.63;;;5.57;;
59599;SDS011;61855;55.030;73.326;2022-08-25T11:29:13;12.85;;;6.13;;
59599;SDS011;61855;55.030;73.326;2022-08-25T11:31:48;8.32;;;5.97;;
59599;SDS011;61855;55.030;73.326;2022-08-25T11:34:18;10.07;;;5.75;;
59599;SDS011;61855;55.030;73.326;2022-08-25T11:37:05;26.58;;;7.75;;
59599;SDS011;61855;55.030;73.326;2022-08-25T11:50:05;11.80;;;6.05;;
59599;SDS011;61855;55.030;73.326;2022-08-25T11:52:55;7.60;;;5.20;;
59599;SDS011;61855;55.030;73.326;2022-08-25T11:55:28;10.18;;;5.13;;
59599;SDS011;61855;55.030;73.326;2022-08-25T12:01:05;12.77;;;5.65;;
59599;SDS011;61855;55.030;73.326;2022-08-25T12:08:47;25.75;;;7.10;;
59599;SDS011;61855;55.030;73.326;2022-08-25T12:27:24;18.90;;;7.13;;
59599;SDS011;61855;55.030;73.326;2022-08-25T12:32:39;12.50;;;6.25;;
59599;SDS011;61855;55.030;73.326;2022-08-25T12:37:57;22.75;;;6.68;;
59599;SDS011;61855;55.030;73.326;2022-08-25T12:43:04;11.23;;;6.30;;
59599;SDS011;61855;55.030;73.326;2022-08-25T12:48:52;21.65;;;7.40;;
59599;SDS011;61855;55.030;73.326;2022-08-25T12:51:02;22.40;;;7.43;;
59599;SDS011;61855;55.030;73.326;2022-08-25T12:53:33;17.50;;;7.43;;
59599;SDS011;61855;55.030;73.326;2022-08-25T12:58:53;10.45;;;7.22;;
59599;SDS011;61855;55.030;73.326;2022-08-25T13:06:59;15.00;;;7.65;;
59599;SDS011;61855;55.030;73.326;2022-08-25T13:12:58;21.15;;;8.10;;
59599;SDS011;61855;55.030;73.326;2022-08-25T13:15:34;19.58;;;9.93;;
59599;SDS011;61855;55.030;73.326;2022-08-25T13:18:15;24.50;;;8.10;;
59599;SDS011;61855;55.030;73.326;2022-08-25T13:20:44;24.23;;;7.90;;
59599;SDS011;61855;55.030;73.326;2022-08-25T13:23:15;22.38;;;8.65;;
59599;SDS011;61855;55.030;73.326;2022-08-25T13:25:47;25.02;;;10.15;;
59599;SDS011;61855;55.030;73.326;2022-08-25T13:28:29;20.58;;;9.35;;
59599;SDS011;61855;55.030;73.326;2022-08-25T13:31:03;18.75;;;9.52;;
59599;SDS011;61855;55.030;73.326;2022-08-25T13:33:29;18.38;;;10.27;;
59599;SDS011;61855;55.030;73.326;2022-08-25T13:35:56;24.80;;;10.60;;
59599;SDS011;61855;55.030;73.326;2022-08-25T13:38:42;32.95;;;12.48;;
59599;SDS011;61855;55.030;73.326;2022-08-25T13:41:09;30.23;;;14.13;;
59599;SDS011;61855;55.030;73.326;2022-08-25T13:43:41;29.38;;;12.38;;
59599;SDS011;61855;55.030;73.326;2022-08-25T13:46:18;29.88;;;9.15;;
59599;SDS011;61855;55.030;73.326;2022-08-25T13:48:45;22.20;;;9.32;;
59599;SDS011;61855;55.030;73.326;2022-08-25T13:51:17;27.75;;;8.98;;
59599;SDS011;61855;55.030;73.326;2022-08-25T13:53:47;26.05;;;10.00;;
59599;SDS011;61855;55.030;73.326;2022-08-25T13:56:33;25.75;;;9.98;;
59599;SDS011;61855;55.030;73.326;2022-08-25T13:59:02;24.73;;;9.35;;
59599;SDS011;61855;55.030;73.326;2022-08-25T14:01:31;24.63;;;10.73;;
59599;SDS011;61855;55.030;73.326;2022-08-25T14:15:02;24.92;;;10.73;;
59599;SDS011;61855;55.030;73.326;2022-08-25T14:18:07;26.65;;;12.60;;
59599;SDS011;61855;55.030;73.326;2022-08-25T14:20:42;22.92;;;13.07;;
59599;SDS011;61855;55.030;73.326;2022-08-25T14:23:14;37.33;;;14.65;;
59599;SDS011;61855;55.030;73.326;2022-08-25T14:25:46;32.63;;;15.25;;
59599;SDS011;61855;55.030;73.326;2022-08-25T14:28:15;34.63;;;15.55;;
59599;SDS011;61855;55.030;73.326;2022-08-25T14:30:53;45.97;;;16.02;;
59599;SDS011;61855;55.030;73.326;2022-08-25T14:33:29;30.90;;;15.48;;
59599;SDS011;61855;55.030;73.326;2022-08-25T14:36:07;33.50;;;15.15;;
59599;SDS011;61855;55.030;73.326;2022-08-25T14:38:34;35.88;;;15.95;;
59599;SDS011;61855;55.030;73.326;2022-08-25T14:41:04;30.15;;;15.07;;
59599;SDS011;61855;55.030;73.326;2022-08-25T14:43:32;28.52;;;15.18;;
59599;SDS011;61855;55.030;73.326;2022-08-25T14:45:59;31.38;;;14.50;;
59599;SDS011;61855;55.030;73.326;2022-08-25T14:48:33;26.00;;;14.02;;
59599;SDS011;61855;55.030;73.326;2022-08-25T14:51:04;29.00;;;14.90;;
59599;SDS011;61855;55.030;73.326;2022-08-25T14:53:31;32.97;;;15.02;;
59599;SDS011;61855;55.030;73.326;2022-08-25T14:56:03;36.42;;;15.85;;
59599;SDS011;61855;55.030;73.326;2022-08-25T14:58:30;40.97;;;16.85;;
59599;SDS011;61855;55.030;73.326;2022-08-25T15:00:57;36.08;;;15.95;;
59599;SDS011;61855;55.030;73.326;2022-08-25T15:03:31;36.13;;;17.45;;
59599;SDS011;61855;55.030;73.326;2022-08-25T15:06:01;39.90;;;18.77;;
59599;SDS011;61855;55.030;73.326;2022-08-25T15:08:38;33.50;;;16.75;;
59599;SDS011;61855;55.030;73.326;2022-08-25T15:11:24;34.85;;;15.88;;
59599;SDS011;61855;55.030;73.326;2022-08-25T15:13:56;26.55;;;14.73;;
59599;SDS011;61855;55.030;73.326;2022-08-25T15:16:26;24.63;;;13.68;;
59599;SDS011;61855;55.030;73.326;2022-08-25T15:19:09;26.52;;;14.75;;
59599;SDS011;61855;55.030;73.326;2022-08-25T15:21:39;29.90;;;14.68;;
59599;SDS011;61855;55.030;73.326;2022-08-25T15:24:10;25.48;;;13.68;;
59599;SDS011;61855;55.030;73.326;2022-08-25T15:26:39;22.88;;;13.07;;
59599;SDS011;61855;55.030;73.326;2022-08-25T15:29:08;22.95;;;12.32;;
59599;SDS011;61855;55.030;73.326;2022-08-25T15:31:35;25.80;;;13.77;;
59599;SDS011;61855;55.030;73.326;2022-08-25T15:34:05;21.40;;;14.25;;
59599;SDS011;61855;55.030;73.326;2022-08-25T15:36:33;20.58;;;12.75;;
59599;SDS011;61855;55.030;73.326;2022-08-25T15:39:06;22.73;;;13.57;;
59599;SDS011;61855;55.030;73.326;2022-08-25T15:41:33;22.92;;;12.55;;
59599;SDS011;61855;55.030;73.326;2022-08-25T15:44:01;24.33;;;13.88;;
59599;SDS011;61855;55.030;73.326;2022-08-25T15:46:32;20.65;;;12.32;;
59599;SDS011;61855;55.030;73.326;2022-08-25T15:49:00;21.48;;;12.50;;
59599;SDS011;61855;55.030;73.326;2022-08-25T15:51:26;22.63;;;12.68;;
59599;SDS011;61855;55.030;73.326;2022-08-25T15:53:53;19.70;;;12.23;;
59599;SDS011;61855;55.030;73.326;2022-08-25T15:56:25;25.05;;;13.60;;
59599;SDS011;61855;55.030;73.326;2022-08-25T15:58:54;22.65;;;12.80;;
59599;SDS011;61855;55.030;73.326;2022-08-25T16:01:22;27.13;;;15.25;;
59599;SDS011;61855;55.030;73.326;2022-08-25T16:03:50;25.73;;;14.25;;
59599;SDS011;61855;55.030;73.326;2022-08-25T16:06:24;34.80;;;15.65;;
59599;SDS011;61855;55.030;73.326;2022-08-25T16:08:51;29.58;;;15.40;;
59599;SDS011;61855;55.030;73.326;2022-08-25T16:11:24;21.67;;;14.43;;
59599;SDS011;61855;55.030;73.326;2022-08-25T16:14:03;24.10;;;14.40;;
59599;SDS011;61855;55.030;73.326;2022-08-25T16:16:30;24.38;;;14.18;;
59599;SDS011;61855;55.030;73.326;2022-08-25T16:18:57;26.50;;;14.48;;
59599;SDS011;61855;55.030;73.326;2022-08-25T16:21:29;24.15;;;14.15;;
59599;SDS011;61855;55.030;73.326;2022-08-25T16:24:00;23.80;;;13.93;;
59599;SDS011;61855;55.030;73.326;2022-08-25T16:26:28;28.15;;;13.95;;
59599;SDS011;61855;55.030;73.326;2022-08-25T16:28:55;24.38;;;13.93;;
59599;SDS011;61855;55.030;73.326;2022-08-25T16:31:21;22.60;;;12.45;;
59599;SDS011;61855;55.030;73.326;2022-08-25T16:33:49;20.70;;;12.57;;
59599;SDS011;61855;55.030;73.326;2022-08-25T16:36:26;22.17;;;13.18;;
59599;SDS011;61855;55.030;73.326;2022-08-25T16:38:54;22.85;;;13.82;;
59599;SDS011;61855;55.030;73.326;2022-08-25T16:41:23;28.88;;;13.73;;
59599;SDS011;61855;55.030;73.326;2022-08-25T16:43:52;24.38;;;14.23;;
59599;SDS011;61855;55.030;73.326;2022-08-25T16:46:19;22.88;;;13.02;;
59599;SDS011;61855;55.030;73.326;2022-08-25T16:48:46;21.58;;;13.07;;
59599;SDS011;61855;55.030;73.326;2022-08-25T16:51:24;21.73;;;12.48;;